createdAt,value
2023-04-16T00:00:07.797Z,7.05
2023-04-16T00:03:10.447Z,8.80
2023-04-16T00:06:14.789Z,10.88
2023-04-16T00:09:17.311Z,7.30
2023-04-16T00:12:19.856Z,5.88
2023-04-16T00:15:22.447Z,14.90
2023-04-16T00:18:25.083Z,8.57
2023-04-16T00:21:29.052Z,7.97
2023-04-16T00:24:31.544Z,9.77
2023-04-16T00:27:34.047Z,9.93
2023-04-16T00:30:36.620Z,8.50
2023-04-16T00:33:39.186Z,7.80
2023-04-16T00:36:43.113Z,12.95
2023-04-16T00:39:45.648Z,15.38
2023-04-16T00:42:48.226Z,8.23
2023-04-16T00:45:50.780Z,9.15
2023-04-16T00:48:54.641Z,8.52
2023-04-16T00:51:58.608Z,11.38
2023-04-16T00:55:01.214Z,12.55
2023-04-16T00:58:04.120Z,9.82
2023-04-16T01:01:06.803Z,12.27
2023-04-16T01:04:09.599Z,10.60
2023-04-16T01:07:13.566Z,9.40
2023-04-16T01:10:16.109Z,11.35
2023-04-16T01:13:18.617Z,8.32
2023-04-16T01:16:21.201Z,11.50
2023-04-16T01:19:23.808Z,12.40
2023-04-16T01:22:27.912Z,7.25
2023-04-16T01:25:30.488Z,14.60
2023-04-16T01:28:33.034Z,11.88
2023-04-16T01:31:35.621Z,8.65
2023-04-16T01:34:38.213Z,13.38
2023-04-16T01:37:42.127Z,12.88
2023-04-16T01:40:44.626Z,8.38
2023-04-16T01:43:47.166Z,15.90
2023-04-16T01:46:49.808Z,8.57
2023-04-16T01:49:52.399Z,11.75
2023-04-16T01:52:56.276Z,12.15
2023-04-16T01:55:58.848Z,8.60
2023-04-16T01:59:01.431Z,10.77
2023-04-16T02:02:04.539Z,9.00
2023-04-16T02:05:07.603Z,19.33
2023-04-16T02:08:11.481Z,19.98
2023-04-16T02:11:13.988Z,12.48
2023-04-16T02:14:16.500Z,12.18
2023-04-16T02:17:19.079Z,14.20
2023-04-16T02:20:21.712Z,11.75
2023-04-16T02:23:25.630Z,7.10
2023-04-16T02:26:29.154Z,19.13
2023-04-16T02:29:31.911Z,9.45
2023-04-16T02:32:34.478Z,14.90
2023-04-16T02:35:37.123Z,11.48
2023-04-16T02:38:41.144Z,10.13
2023-04-16T02:41:43.700Z,14.50
2023-04-16T02:44:46.205Z,29.15
2023-04-16T02:47:48.899Z,18.63
2023-04-16T02:50:51.471Z,15.13
2023-04-16T02:53:55.403Z,14.65
2023-04-16T02:56:57.998Z,8.98
2023-04-16T03:00:00.633Z,14.82
2023-04-16T03:03:03.278Z,10.02
2023-04-16T03:06:06.012Z,15.80
2023-04-16T03:09:10.171Z,9.40
2023-04-16T03:12:12.870Z,11.98
2023-04-16T03:15:15.420Z,19.33
2023-04-16T03:18:17.977Z,18.92
2023-04-16T03:21:20.639Z,11.80
2023-04-16T03:24:24.677Z,14.07
2023-04-16T03:27:27.175Z,12.15
2023-04-16T03:30:29.702Z,14.82
2023-04-16T03:33:32.256Z,12.65
2023-04-16T03:36:34.813Z,12.98
2023-04-16T03:39:38.715Z,13.80
2023-04-16T03:42:41.381Z,18.65
2023-04-16T03:45:45.296Z,21.15
2023-04-16T03:48:47.892Z,15.32
2023-04-16T03:51:50.485Z,14.95
2023-04-16T03:54:54.376Z,26.38
2023-04-16T03:57:57.406Z,14.38
2023-04-16T04:00:59.978Z,18.17
2023-04-16T04:04:02.670Z,17.75
2023-04-16T04:07:06.438Z,25.33
2023-04-16T04:10:11.180Z,27.45
2023-04-16T04:13:13.759Z,12.88
2023-04-16T04:16:16.402Z,17.02
2023-04-16T04:19:18.970Z,20.98
2023-04-16T04:22:21.549Z,14.38
2023-04-16T04:25:25.758Z,12.90
2023-04-16T04:28:28.264Z,10.50
2023-04-16T04:31:30.906Z,10.65
2023-04-16T04:34:33.543Z,20.10
2023-04-16T04:37:36.157Z,19.88
2023-04-16T04:40:40.037Z,12.88
2023-04-16T04:43:42.573Z,14.32
2023-04-16T04:46:45.129Z,12.90
2023-04-16T04:49:47.697Z,8.98
2023-04-16T04:52:50.412Z,9.38
2023-04-16T04:55:57.571Z,11.27
2023-04-16T04:59:08.038Z,12.38
2023-04-16T05:02:10.875Z,15.98
2023-04-16T05:05:13.551Z,18.65
2023-04-16T05:08:16.171Z,14.00
2023-04-16T05:11:20.035Z,10.82
2023-04-16T05:14:22.533Z,17.25
2023-04-16T05:17:25.058Z,11.70
2023-04-16T05:20:27.629Z,10.70
2023-04-16T05:23:30.259Z,9.65
2023-04-16T05:26:34.153Z,11.43
2023-04-16T05:29:36.729Z,10.60
2023-04-16T05:32:40.498Z,14.60
2023-04-16T05:35:43.104Z,19.17
2023-04-16T05:38:45.613Z,15.75
2023-04-16T05:41:49.471Z,27.33
2023-04-16T05:44:52.068Z,11.43
2023-04-16T05:47:54.704Z,12.88
2023-04-16T05:50:57.313Z,7.68
2023-04-16T05:53:59.861Z,9.45
2023-04-16T05:57:04.380Z,10.90
2023-04-16T06:00:08.393Z,18.30
2023-04-16T06:03:11.111Z,11.73
2023-04-16T06:06:13.796Z,11.40
2023-04-16T06:09:16.573Z,12.52
2023-04-16T06:12:20.620Z,8.93
2023-04-16T06:15:23.212Z,17.67
2023-04-16T06:18:25.790Z,8.57
2023-04-16T06:21:28.373Z,11.15
2023-04-16T06:24:31.005Z,13.20
2023-04-16T06:27:34.928Z,18.38
2023-04-16T06:30:37.486Z,10.82
2023-04-16T06:33:40.061Z,11.52
2023-04-16T06:36:42.580Z,13.55
2023-04-16T06:39:45.180Z,18.10
2023-04-16T06:42:49.105Z,16.67
2023-04-16T06:45:52.101Z,11.00
2023-04-16T06:48:54.619Z,16.92
2023-04-16T06:51:57.175Z,10.55
2023-04-16T06:54:59.710Z,10.52
2023-04-16T06:58:03.612Z,13.40
2023-04-16T07:01:06.393Z,11.20
2023-04-16T07:04:09.329Z,13.65
2023-04-16T07:07:12.005Z,11.43
2023-04-16T07:10:14.680Z,12.65
2023-04-16T07:13:19.482Z,13.32
2023-04-16T07:16:22.092Z,12.52
2023-04-16T07:19:24.731Z,9.95
2023-04-16T07:22:27.236Z,11.48
2023-04-16T07:25:29.784Z,8.63
2023-04-16T07:28:33.703Z,16.75
2023-04-16T07:31:36.291Z,11.57
2023-04-16T07:34:38.888Z,6.53
2023-04-16T07:37:41.481Z,14.10
2023-04-16T07:40:44.007Z,9.68
2023-04-16T07:43:47.893Z,13.30
2023-04-16T07:46:50.494Z,7.78
2023-04-16T07:49:53.276Z,10.55
2023-04-16T07:52:55.848Z,9.75
2023-04-16T07:55:58.424Z,13.35
2023-04-16T07:59:11.064Z,14.25
2023-04-16T08:02:17.536Z,8.73
2023-04-16T08:05:20.384Z,8.05
2023-04-16T08:08:23.003Z,13.95
2023-04-16T08:11:25.656Z,13.93
2023-04-16T08:14:29.575Z,14.10
2023-04-16T08:17:34.336Z,8.10
2023-04-16T08:20:36.878Z,17.23
2023-04-16T08:23:39.396Z,12.90
2023-04-16T08:26:41.895Z,19.08
2023-04-16T08:29:45.800Z,15.32
2023-04-16T08:32:50.032Z,11.02
2023-04-16T08:35:52.828Z,12.77
2023-04-16T08:38:55.380Z,13.70
2023-04-16T08:41:58.036Z,14.00
2023-04-16T08:45:07.469Z,9.40
2023-04-16T08:48:10.875Z,12.95
2023-04-16T08:51:13.408Z,10.15
2023-04-16T08:54:16.089Z,10.60
2023-04-16T08:57:20.153Z,10.52
2023-04-16T09:00:24.265Z,14.27
2023-04-16T09:03:26.943Z,18.55
2023-04-16T09:06:29.578Z,15.57
2023-04-16T09:09:34.555Z,12.95
2023-04-16T09:12:37.182Z,15.20
2023-04-16T09:15:41.137Z,10.25
2023-04-16T09:18:43.732Z,17.65
2023-04-16T09:21:47.302Z,14.48
2023-04-16T09:24:49.822Z,17.45
2023-04-16T09:27:52.396Z,17.55
2023-04-16T09:31:12.870Z,13.85
2023-04-16T09:34:15.640Z,10.30
2023-04-16T09:37:18.211Z,16.00
2023-04-16T09:40:24.648Z,14.13
2023-04-16T09:43:27.839Z,12.90
2023-04-16T09:46:32.650Z,18.30
2023-04-16T09:49:35.441Z,13.80
2023-04-16T09:52:38.378Z,11.60
2023-04-16T09:55:40.900Z,13.20
2023-04-16T09:58:43.472Z,12.18
2023-04-16T10:01:49.394Z,16.52
2023-04-16T10:04:53.091Z,20.98
2023-04-16T10:07:55.825Z,12.70
2023-04-16T10:10:58.424Z,21.88
2023-04-16T10:14:01.431Z,13.57
2023-04-16T10:17:06.209Z,15.63
2023-04-16T10:20:09.275Z,13.07
2023-04-16T10:23:11.848Z,15.18
2023-04-16T10:26:14.387Z,18.10
2023-04-16T10:29:16.979Z,19.60
2023-04-16T10:32:21.737Z,18.25
2023-04-16T10:35:26.121Z,13.30
2023-04-16T10:38:28.850Z,12.75
2023-04-16T10:41:33.433Z,11.55
2023-04-16T10:44:36.032Z,15.07
2023-04-16T10:47:43.177Z,11.88
2023-04-16T10:51:00.102Z,12.70
2023-04-16T10:54:04.992Z,13.43
2023-04-16T10:57:08.407Z,11.60
2023-04-16T11:00:22.936Z,9.05
2023-04-16T11:03:27.385Z,9.75
2023-04-16T11:06:32.092Z,13.73
2023-04-16T11:09:56.122Z,14.15
2023-04-16T11:12:58.756Z,25.05
2023-04-16T11:16:02.231Z,27.33
2023-04-16T11:19:06.111Z,27.63
2023-04-16T11:22:08.657Z,13.50
2023-04-16T11:25:11.215Z,18.30
2023-04-16T11:28:13.713Z,10.27
2023-04-16T11:31:16.524Z,9.15
2023-04-16T11:34:20.665Z,14.50
2023-04-16T11:37:23.632Z,10.75
2023-04-16T11:40:26.382Z,12.23
2023-04-16T11:43:28.889Z,11.13
2023-04-16T11:46:39.145Z,7.55
2023-04-16T11:49:43.091Z,14.50
2023-04-16T11:52:45.631Z,11.93
2023-04-16T11:55:48.230Z,9.30
2023-04-16T11:59:09.417Z,12.60
2023-04-16T12:02:12.197Z,16.00
2023-04-16T12:05:30.151Z,11.05
2023-04-16T12:11:41.475Z,20.17
2023-04-16T12:14:50.975Z,13.38
2023-04-16T12:18:03.394Z,13.70
2023-04-16T12:21:07.888Z,14.52
2023-04-16T12:24:11.353Z,13.82
2023-04-16T12:27:13.860Z,11.98
2023-04-16T12:30:16.757Z,13.02
2023-04-16T12:33:21.049Z,12.30
2023-04-16T12:36:24.923Z,12.30
2023-04-16T12:39:27.480Z,15.05
2023-04-16T12:42:35.559Z,15.65
2023-04-16T12:45:38.859Z,15.60
2023-04-16T12:48:41.567Z,17.38
2023-04-16T12:51:45.524Z,12.68
2023-04-16T12:54:48.075Z,20.88
2023-04-16T12:57:52.664Z,18.08
2023-04-16T13:00:55.197Z,15.18
2023-04-16T13:03:58.075Z,15.23
2023-04-16T13:07:02.218Z,22.73
2023-04-16T13:10:05.225Z,17.63
2023-04-16T13:13:07.796Z,16.88
2023-04-16T13:16:10.466Z,21.80
2023-04-16T13:19:13.140Z,14.95
2023-04-16T13:22:17.172Z,16.88
2023-04-16T13:25:19.829Z,16.38
2023-04-16T13:28:22.383Z,19.63
2023-04-16T13:31:24.995Z,14.25
2023-04-16T13:34:27.599Z,15.85
2023-04-16T13:37:31.497Z,16.40
2023-04-16T13:40:34.066Z,20.25
2023-04-16T13:43:37.858Z,21.88
2023-04-16T13:46:40.457Z,15.15
2023-04-16T13:49:43.038Z,28.52
2023-04-16T13:52:46.926Z,13.18
2023-04-16T13:55:49.856Z,17.85
2023-04-16T13:58:52.389Z,13.30
2023-04-16T14:01:55.041Z,16.08
2023-04-16T14:04:57.634Z,16.17
2023-04-16T14:08:01.518Z,21.88
2023-04-16T14:11:05.465Z,19.85
2023-04-16T14:14:08.055Z,16.83
2023-04-16T14:17:10.693Z,19.08
2023-04-16T14:20:14.054Z,23.65
2023-04-16T14:23:18.004Z,20.30
2023-04-16T14:26:20.634Z,19.08
2023-04-16T14:29:23.183Z,18.35
2023-04-16T14:32:25.722Z,18.92
2023-04-16T14:35:28.403Z,16.58
2023-04-16T14:38:32.438Z,19.80
2023-04-16T14:41:35.156Z,17.27
2023-04-16T14:44:37.921Z,18.55
2023-04-16T14:47:45.636Z,15.63
2023-04-16T14:50:48.363Z,16.50
2023-04-16T14:53:52.224Z,17.55
2023-04-16T14:56:54.770Z,17.63
2023-04-16T14:59:57.288Z,14.93
2023-04-16T15:03:00.015Z,17.58
2023-04-16T15:06:02.645Z,17.00
2023-04-16T15:09:07.404Z,12.13
2023-04-16T15:12:09.989Z,15.35
2023-04-16T15:15:12.758Z,11.80
2023-04-16T15:18:16.328Z,17.48
2023-04-16T15:21:18.936Z,13.35
2023-04-16T15:24:22.859Z,11.02
2023-04-16T15:27:25.568Z,15.50
2023-04-16T15:30:28.109Z,15.52
2023-04-16T15:33:30.695Z,13.27
2023-04-16T15:36:33.279Z,17.00
2023-04-16T15:39:37.154Z,13.30
2023-04-16T15:42:39.877Z,19.02
2023-04-16T15:45:42.533Z,10.23
2023-04-16T15:48:45.215Z,16.80
2023-04-16T15:51:47.787Z,16.85
2023-04-16T15:54:51.676Z,16.83
2023-04-16T15:57:54.179Z,14.23
2023-04-16T16:00:56.704Z,17.92
2023-04-16T16:03:59.364Z,22.20
2023-04-16T16:07:03.020Z,12.00
2023-04-16T16:10:08.189Z,19.20
2023-04-16T16:13:13.079Z,20.60
2023-04-16T16:16:16.037Z,20.48
2023-04-16T16:19:18.680Z,19.67
2023-04-16T16:22:23.534Z,21.80
2023-04-16T16:25:27.473Z,26.23
2023-04-16T16:28:29.981Z,29.98
2023-04-16T16:31:32.561Z,30.40
2023-04-16T16:34:35.392Z,24.33
2023-04-16T16:37:38.220Z,21.13
2023-04-16T16:40:42.159Z,25.55
2023-04-16T16:43:44.653Z,35.70
2023-04-16T16:46:48.090Z,27.13
2023-04-16T16:49:51.143Z,28.55
2023-04-16T16:52:53.716Z,21.33
2023-04-16T16:55:57.634Z,22.52
2023-04-16T16:59:00.177Z,16.85
2023-04-16T17:02:03.455Z,16.73
2023-04-16T17:05:07.487Z,21.85
2023-04-16T17:08:10.335Z,13.90
2023-04-16T17:11:14.448Z,15.25
2023-04-16T17:14:17.064Z,25.60
2023-04-16T17:17:19.654Z,23.85
2023-04-16T17:20:22.185Z,27.00
2023-04-16T17:23:24.680Z,21.85
2023-04-16T17:26:28.622Z,21.98
2023-04-16T17:29:31.240Z,24.50
2023-04-16T17:32:33.974Z,23.58
2023-04-16T17:35:36.630Z,23.90
2023-04-16T17:38:39.261Z,25.90
2023-04-16T17:41:43.128Z,24.52
2023-04-16T17:44:45.794Z,28.73
2023-04-16T17:47:48.337Z,27.63
2023-04-16T17:50:50.910Z,29.92
2023-04-16T17:53:53.479Z,31.83
2023-04-16T17:56:58.370Z,24.60
2023-04-16T18:00:00.917Z,38.50
2023-04-16T18:03:03.656Z,31.35
2023-04-16T18:06:06.684Z,31.58
2023-04-16T18:09:09.221Z,35.97
2023-04-16T18:12:13.207Z,22.45
2023-04-16T18:15:15.881Z,28.83
2023-04-16T18:18:20.017Z,28.33
2023-04-16T18:21:22.582Z,27.40
2023-04-16T18:24:25.221Z,36.88
2023-04-16T18:27:29.142Z,30.17
2023-04-16T18:30:31.666Z,30.35
2023-04-16T18:33:53.957Z,35.78
2023-04-16T18:36:56.865Z,37.20
2023-04-16T18:39:59.462Z,28.73
2023-04-16T18:43:03.403Z,30.67
2023-04-16T18:46:06.093Z,27.85
2023-04-16T18:49:08.875Z,35.88
2023-04-16T18:52:11.600Z,33.53
2023-04-16T18:55:14.134Z,28.92
2023-04-16T18:58:18.006Z,26.70
2023-04-16T19:01:20.687Z,32.65
2023-04-16T19:04:23.326Z,27.98
2023-04-16T19:07:25.901Z,32.20
2023-04-16T19:10:28.494Z,29.17
2023-04-16T19:13:32.761Z,29.05
2023-04-16T19:16:35.370Z,30.48
2023-04-16T19:19:37.955Z,30.73
2023-04-16T19:22:40.706Z,34.55
2023-04-16T19:25:43.246Z,33.70
2023-04-16T19:28:47.124Z,29.45
2023-04-16T19:31:49.743Z,39.75
2023-04-16T19:34:52.361Z,34.17
2023-04-16T19:37:56.199Z,36.03
2023-04-16T19:40:58.767Z,33.88
2023-04-16T19:44:02.657Z,28.27
2023-04-16T19:47:06.132Z,36.22
2023-04-16T19:50:09.568Z,32.85
2023-04-16T19:53:12.171Z,33.88
2023-04-16T19:56:15.867Z,31.02
2023-04-16T19:59:20.460Z,33.03
2023-04-16T20:02:23.201Z,37.08
2023-04-16T20:05:26.088Z,27.30
2023-04-16T20:08:28.659Z,30.00
2023-04-16T20:11:31.301Z,32.50
2023-04-16T20:14:35.233Z,31.30
2023-04-16T20:17:37.891Z,36.45
2023-04-16T20:20:41.418Z,34.45
2023-04-16T20:23:44.000Z,33.80
2023-04-16T20:26:46.527Z,29.98
2023-04-16T20:29:51.672Z,37.50
2023-04-16T20:32:54.193Z,46.03
2023-04-16T20:35:56.761Z,41.40
2023-04-16T20:39:02.078Z,40.40
2023-04-16T20:42:09.962Z,41.03
2023-04-16T20:45:14.314Z,44.08
2023-04-16T20:48:17.005Z,47.38
2023-04-16T20:51:19.643Z,41.55
2023-04-16T20:54:22.157Z,48.47
2023-04-16T20:57:24.708Z,44.60
2023-04-16T21:00:28.583Z,49.88
2023-04-16T21:03:31.327Z,41.83
2023-04-16T21:06:38.346Z,37.85
2023-04-16T21:09:41.196Z,35.60
2023-04-16T21:12:43.779Z,36.38
2023-04-16T21:15:47.690Z,41.20
2023-04-16T21:18:50.372Z,40.72
2023-04-16T21:21:52.949Z,42.75
2023-04-16T21:24:55.484Z,42.95
2023-04-16T21:27:58.098Z,52.25
2023-04-16T21:31:02.058Z,54.88
2023-04-16T21:34:04.647Z,47.92
2023-04-16T21:37:07.174Z,44.90
2023-04-16T21:40:10.193Z,49.75
2023-04-16T21:43:12.757Z,50.35
2023-04-16T21:46:16.691Z,46.15
2023-04-16T21:49:19.353Z,46.60
2023-04-16T21:52:21.993Z,51.25
2023-04-16T21:55:24.695Z,49.85
2023-04-16T21:58:27.265Z,53.60
2023-04-16T22:01:31.241Z,48.83
2023-04-16T22:04:38.391Z,52.03
2023-04-16T22:07:41.248Z,45.38
2023-04-16T22:10:43.850Z,51.30
2023-04-16T22:13:47.504Z,46.35
2023-04-16T22:16:52.197Z,51.08
2023-04-16T22:19:54.908Z,50.92
2023-04-16T22:22:58.570Z,46.42
2023-04-16T22:26:02.483Z,53.88
2023-04-16T22:29:05.069Z,49.13
2023-04-16T22:32:09.001Z,50.40
2023-04-16T22:35:12.458Z,60.35
2023-04-16T22:38:14.999Z,56.50
2023-04-16T22:41:17.612Z,57.75
2023-04-16T22:44:20.205Z,61.92
2023-04-16T22:47:24.117Z,54.75
2023-04-16T22:50:27.089Z,59.15
2023-04-16T22:53:29.585Z,61.58
2023-04-16T22:56:32.147Z,56.85
2023-04-16T22:59:34.738Z,57.95
2023-04-16T23:02:38.735Z,54.55
2023-04-16T23:05:41.354Z,60.55
2023-04-16T23:08:43.943Z,56.15
2023-04-16T23:11:46.519Z,58.22
2023-04-16T23:14:49.116Z,60.60
2023-04-16T23:17:53.040Z,58.50
2023-04-16T23:20:55.655Z,55.72
2023-04-16T23:23:59.073Z,57.05
2023-04-16T23:27:01.619Z,59.08
2023-04-16T23:30:04.512Z,50.25
2023-04-16T23:33:08.557Z,52.08
2023-04-16T23:36:11.294Z,56.15
2023-04-16T23:39:13.910Z,54.42
2023-04-16T23:42:16.555Z,52.15
2023-04-16T23:45:19.265Z,53.20
2023-04-16T23:48:23.118Z,52.92
2023-04-16T23:51:26.202Z,58.95
2023-04-16T23:54:28.720Z,58.22
2023-04-16T23:57:31.229Z,61.55
